DLH2DM EDDF-SBGL
Flight info
| Callsign | DLH2DM |
|---|---|
| Flight time | N/A |
| Altitude | 37000 |
| Route | ANEKI2L ANEKI Y163 HERBI Y164 MOPAN DCT LUTIX DCT BENOT DCT NEMOS DCT NINTU DCT MEBAK DCT REPSI DCT LERGA DCT MINSO DCT NARAK DCT AGN DCT MAQAB DCT TIVLI DCT ELSAP DCT ZAR DCT EXEMU DCT PISUS DCT EDIMU DCT ADUXO DCT NUSGO DCT OBIBO DCT NASOS L27 BLN DCT MGA DCT PIMOS DCT GALTO DCT SOLNA/N0484F390 L660 LAY/N0517F290 DCT CABOJ/N0514F300 DCT BIPET/N0488F380 N857 ETIBA/N0485F400 N857 GUNET UN857 BOTNO DCT ERKUS DCT KODOS UL206 ENRUV/N0484F430 UL206 VRI UN401 MOLSU |
| Aircraft | A359/H-SDE2E3GHIJ3J4J5LM1ORWXY/LB1D1 |
Departure
| Time | N/A |
|---|---|
| Airport | Frankfurt Main Airport (EDDF) |
Arrival
| Time | 2026-05-05 08:48 |
|---|---|
| Airport | Rio Galeão – Tom Jobim International Airport (SBGL) |
| Time | Latitude | Longitude | Altitude | Speed | Heading |
|---|---|---|---|---|---|
| 2026-05-05 06:03 | -6.39984 | -30.99582 | 36937 ft | 491 kts | 210° |
| 2026-05-05 06:03 | -6.42880 | -31.01427 | 36956 ft | 491 kts | 210° |
| 2026-05-05 06:03 | -6.48663 | -31.05108 | 36954 ft | 490 kts | 210° |
| 2026-05-05 06:04 | -6.54390 | -31.08755 | 36957 ft | 490 kts | 209° |
| 2026-05-05 06:04 | -6.60172 | -31.12438 | 36939 ft | 490 kts | 209° |
| 2026-05-05 06:05 | -6.65889 | -31.16082 | 36946 ft | 489 kts | 209° |
| 2026-05-05 06:05 | -6.71649 | -31.19754 | 36962 ft | 489 kts | 210° |
| 2026-05-05 06:06 | -6.77403 | -31.23426 | 36941 ft | 488 kts | 210° |
| 2026-05-05 06:06 | -6.83111 | -31.27070 | 36956 ft | 488 kts | 210° |
| 2026-05-05 06:07 | -6.88848 | -31.30732 | 36942 ft | 488 kts | 210° |
| 2026-05-05 06:07 | -6.94590 | -31.34397 | 36944 ft | 488 kts | 210° |
| 2026-05-05 06:08 | -7.00284 | -31.38033 | 36963 ft | 487 kts | 210° |
| 2026-05-05 06:08 | -7.06016 | -31.41696 | 36944 ft | 487 kts | 210° |
| 2026-05-05 06:09 | -7.11750 | -31.45360 | 36958 ft | 487 kts | 210° |
| 2026-05-05 06:09 | -7.17479 | -31.49022 | 36956 ft | 487 kts | 210° |
| 2026-05-05 06:10 | -7.23195 | -31.52677 | 36946 ft | 487 kts | 210° |
| 2026-05-05 06:10 | -7.28877 | -31.56313 | 36967 ft | 487 kts | 209° |
| 2026-05-05 06:11 | -7.34597 | -31.59972 | 36950 ft | 487 kts | 210° |
| 2026-05-05 06:11 | -7.40313 | -31.63629 | 36966 ft | 486 kts | 210° |
| 2026-05-05 06:12 | -7.46039 | -31.67295 | 36968 ft | 486 kts | 210° |
| 2026-05-05 06:12 | -7.51718 | -31.70933 | 36952 ft | 486 kts | 210° |
| 2026-05-05 06:13 | -7.57431 | -31.74593 | 36969 ft | 486 kts | 210° |
| 2026-05-05 06:13 | -7.63148 | -31.78256 | 36954 ft | 486 kts | 210° |
| 2026-05-05 06:14 | -7.68869 | -31.81922 | 36953 ft | 487 kts | 210° |
| 2026-05-05 06:14 | -7.74586 | -31.85585 | 36973 ft | 486 kts | 210° |
| 2026-05-05 06:15 | -7.80301 | -31.89247 | 36959 ft | 486 kts | 210° |
| 2026-05-05 06:15 | -7.86012 | -31.92908 | 36960 ft | 486 kts | 210° |
| 2026-05-05 06:16 | -7.91693 | -31.96553 | 36960 ft | 486 kts | 210° |
| 2026-05-05 06:16 | -7.97425 | -32.00233 | 36958 ft | 486 kts | 210° |
| 2026-05-05 06:17 | -8.03141 | -32.03903 | 36979 ft | 486 kts | 210° |
| 2026-05-05 06:17 | -8.08820 | -32.07549 | 36960 ft | 486 kts | 210° |
| 2026-05-05 06:18 | -8.14534 | -32.11219 | 36967 ft | 486 kts | 210° |
| 2026-05-05 06:18 | -8.20215 | -32.14869 | 36980 ft | 486 kts | 210° |
| 2026-05-05 06:19 | -8.25921 | -32.18537 | 36970 ft | 486 kts | 210° |
| 2026-05-05 06:19 | -8.31634 | -32.22212 | 36972 ft | 486 kts | 210° |
| 2026-05-05 06:20 | -8.37350 | -32.25890 | 36970 ft | 486 kts | 210° |
| 2026-05-05 06:20 | -8.43023 | -32.29540 | 36973 ft | 486 kts | 210° |
| 2026-05-05 06:21 | -8.48728 | -32.33213 | 36973 ft | 486 kts | 210° |
| 2026-05-05 06:21 | -8.54426 | -32.36884 | 36972 ft | 485 kts | 210° |
| 2026-05-05 06:22 | -8.60109 | -32.40544 | 36978 ft | 485 kts | 210° |
| 2026-05-05 06:22 | -8.65809 | -32.44217 | 36976 ft | 485 kts | 210° |
| 2026-05-05 06:23 | -8.71470 | -32.47866 | 36979 ft | 485 kts | 210° |
| 2026-05-05 06:23 | -8.77166 | -32.51541 | 36980 ft | 485 kts | 210° |
| 2026-05-05 06:24 | -8.82856 | -32.55213 | 36982 ft | 485 kts | 210° |
| 2026-05-05 06:24 | -8.88557 | -32.58891 | 36984 ft | 485 kts | 210° |
| 2026-05-05 06:25 | -8.94216 | -32.62545 | 36978 ft | 485 kts | 210° |
| 2026-05-05 06:25 | -8.99916 | -32.66227 | 36979 ft | 485 kts | 210° |
| 2026-05-05 06:26 | -9.05605 | -32.69904 | 36979 ft | 485 kts | 210° |
| 2026-05-05 06:26 | -9.11289 | -32.73578 | 36980 ft | 484 kts | 210° |
| 2026-05-05 06:27 | -9.19797 | -32.79081 | 36981 ft | 484 kts | 210° |
| 2026-05-05 06:28 | -9.25477 | -32.82758 | 36982 ft | 484 kts | 210° |
| 2026-05-05 06:28 | -9.31134 | -32.86419 | 36983 ft | 484 kts | 210° |
| 2026-05-05 06:29 | -9.36819 | -32.90099 | 36985 ft | 484 kts | 210° |
| 2026-05-05 06:29 | -9.42475 | -32.93762 | 36989 ft | 484 kts | 210° |
| 2026-05-05 06:30 | -9.48156 | -32.97443 | 36987 ft | 484 kts | 210° |
| 2026-05-05 06:30 | -9.53838 | -33.01128 | 36989 ft | 484 kts | 210° |
| 2026-05-05 06:31 | -9.59516 | -33.04810 | 36990 ft | 484 kts | 210° |
| 2026-05-05 06:31 | -9.65187 | -33.08489 | 36989 ft | 484 kts | 210° |
| 2026-05-05 06:32 | -9.70832 | -33.12154 | 36991 ft | 484 kts | 210° |
| 2026-05-05 06:32 | -9.76502 | -33.15836 | 36989 ft | 484 kts | 210° |
| 2026-05-05 06:33 | -9.82176 | -33.19522 | 36989 ft | 484 kts | 210° |
| 2026-05-05 06:33 | -9.87848 | -33.23208 | 36995 ft | 484 kts | 210° |
| 2026-05-05 06:34 | -9.93487 | -33.26876 | 36991 ft | 483 kts | 210° |
| 2026-05-05 06:34 | -9.99150 | -33.30561 | 36992 ft | 483 kts | 210° |
| 2026-05-05 06:35 | -10.04819 | -33.34251 | 36992 ft | 483 kts | 210° |
| 2026-05-05 06:35 | -10.10491 | -33.37943 | 37002 ft | 483 kts | 210° |
| 2026-05-05 06:36 | -10.16114 | -33.41604 | 37003 ft | 483 kts | 210° |
| 2026-05-05 06:36 | -10.21780 | -33.45296 | 36999 ft | 483 kts | 210° |
| 2026-05-05 06:37 | -10.27440 | -33.48987 | 36999 ft | 483 kts | 209° |
| 2026-05-05 06:37 | -10.33103 | -33.52681 | 36997 ft | 483 kts | 209° |
| 2026-05-05 06:38 | -10.38727 | -33.56347 | 36999 ft | 483 kts | 209° |
| 2026-05-05 06:38 | -10.44388 | -33.60038 | 36999 ft | 483 kts | 209° |
| 2026-05-05 06:39 | -10.49944 | -33.63665 | 37004 ft | 483 kts | 210° |
| 2026-05-05 06:39 | -10.55668 | -33.67404 | 37006 ft | 483 kts | 209° |
| 2026-05-05 06:40 | -10.61319 | -33.71099 | 37002 ft | 483 kts | 209° |
| 2026-05-05 06:40 | -10.66976 | -33.74799 | 37006 ft | 483 kts | 209° |
| 2026-05-05 06:41 | -10.72645 | -33.78508 | 37002 ft | 483 kts | 209° |
| 2026-05-05 06:41 | -10.78298 | -33.82206 | 37005 ft | 483 kts | 210° |
| 2026-05-05 06:42 | -10.83948 | -33.85903 | 37008 ft | 483 kts | 210° |
| 2026-05-05 06:42 | -10.89572 | -33.89588 | 37007 ft | 483 kts | 210° |
| 2026-05-05 06:43 | -10.95226 | -33.93294 | 37008 ft | 483 kts | 210° |
| 2026-05-05 06:43 | -11.00854 | -33.96983 | 37012 ft | 483 kts | 210° |
| 2026-05-05 06:44 | -11.06509 | -34.00692 | 37008 ft | 483 kts | 210° |
| 2026-05-05 06:44 | -11.12167 | -34.04405 | 37010 ft | 483 kts | 210° |
| 2026-05-05 06:45 | -11.17826 | -34.08122 | 37012 ft | 483 kts | 210° |
| 2026-05-05 06:45 | -11.23444 | -34.11814 | 37013 ft | 483 kts | 210° |
| 2026-05-05 06:46 | -11.29100 | -34.15530 | 37013 ft | 483 kts | 210° |
| 2026-05-05 06:46 | -11.34753 | -34.19247 | 37013 ft | 483 kts | 210° |
| 2026-05-05 06:47 | -11.40406 | -34.22964 | 37016 ft | 483 kts | 210° |
| 2026-05-05 06:47 | -11.46027 | -34.26662 | 37015 ft | 483 kts | 210° |
| 2026-05-05 06:48 | -11.51676 | -34.30381 | 37018 ft | 483 kts | 210° |
| 2026-05-05 06:48 | -11.56410 | -34.33500 | 37020 ft | 484 kts | 210° |
| 2026-05-05 06:49 | -11.62030 | -34.37208 | 37022 ft | 484 kts | 210° |
| 2026-05-05 06:49 | -11.67686 | -34.40940 | 37021 ft | 484 kts | 210° |
| 2026-05-05 06:50 | -11.73344 | -34.44671 | 37020 ft | 484 kts | 210° |
| 2026-05-05 06:50 | -11.78998 | -34.48402 | 37018 ft | 484 kts | 210° |
| 2026-05-05 06:51 | -11.84648 | -34.52132 | 37019 ft | 484 kts | 210° |
| 2026-05-05 06:51 | -11.90278 | -34.55852 | 37021 ft | 484 kts | 210° |
| 2026-05-05 06:52 | -11.95949 | -34.59601 | 37021 ft | 484 kts | 210° |
| 2026-05-05 06:52 | -12.01571 | -34.63320 | 37021 ft | 484 kts | 210° |
| 2026-05-05 06:53 | -12.07226 | -34.67062 | 37025 ft | 484 kts | 210° |
| 2026-05-05 06:53 | -12.12877 | -34.70803 | 37023 ft | 484 kts | 210° |
| 2026-05-05 06:54 | -12.18524 | -34.74544 | 37019 ft | 484 kts | 210° |
| 2026-05-05 06:54 | -12.24178 | -34.78289 | 37023 ft | 483 kts | 210° |
| 2026-05-05 06:55 | -12.29785 | -34.82006 | 37021 ft | 483 kts | 210° |
| 2026-05-05 06:55 | -12.35438 | -34.85757 | 37033 ft | 483 kts | 210° |
| 2026-05-05 06:56 | -12.41088 | -34.89507 | 37025 ft | 483 kts | 210° |
| 2026-05-05 06:56 | -12.46701 | -34.93235 | 37026 ft | 483 kts | 211° |
| 2026-05-05 06:57 | -12.52335 | -34.96980 | 37027 ft | 483 kts | 211° |
| 2026-05-05 06:57 | -12.57983 | -35.00736 | 37029 ft | 483 kts | 211° |
| 2026-05-05 06:58 | -12.63592 | -35.04466 | 37029 ft | 483 kts | 211° |
| 2026-05-05 06:58 | -12.69231 | -35.08220 | 37029 ft | 482 kts | 211° |
| 2026-05-05 06:59 | -12.74872 | -35.11978 | 37029 ft | 482 kts | 211° |
| 2026-05-05 06:59 | -12.80460 | -35.15703 | 37032 ft | 482 kts | 211° |
| 2026-05-05 07:00 | -12.86086 | -35.19454 | 37032 ft | 482 kts | 211° |
| 2026-05-05 07:00 | -12.91725 | -35.23214 | 37042 ft | 482 kts | 211° |
| 2026-05-05 07:01 | -12.97302 | -35.26935 | 37037 ft | 480 kts | 211° |
| 2026-05-05 07:01 | -13.02909 | -35.30680 | 37039 ft | 480 kts | 211° |
| 2026-05-05 07:02 | -13.08517 | -35.34428 | 37034 ft | 480 kts | 211° |
| 2026-05-05 07:02 | -13.14084 | -35.38150 | 37040 ft | 480 kts | 211° |
| 2026-05-05 07:03 | -13.19656 | -35.41877 | 37040 ft | 479 kts | 211° |
| 2026-05-05 07:03 | -13.25253 | -35.45623 | 37040 ft | 479 kts | 211° |
| 2026-05-05 07:04 | -13.30843 | -35.49366 | 37046 ft | 479 kts | 211° |
| 2026-05-05 07:04 | -13.36428 | -35.53108 | 37047 ft | 479 kts | 211° |
| 2026-05-05 07:05 | -13.42011 | -35.56854 | 37053 ft | 479 kts | 211° |
| 2026-05-05 07:05 | -13.47574 | -35.60583 | 37053 ft | 479 kts | 211° |
| 2026-05-05 07:06 | -13.53158 | -35.64327 | 37049 ft | 478 kts | 211° |
| 2026-05-05 07:06 | -13.58714 | -35.68056 | 37050 ft | 478 kts | 211° |
| 2026-05-05 07:07 | -13.64293 | -35.71803 | 37045 ft | 478 kts | 211° |
| 2026-05-05 07:07 | -13.69869 | -35.75551 | 37055 ft | 478 kts | 211° |
| 2026-05-05 07:08 | -13.75419 | -35.79283 | 37059 ft | 479 kts | 211° |
| 2026-05-05 07:08 | -13.80997 | -35.83037 | 37061 ft | 479 kts | 211° |
| 2026-05-05 07:09 | -13.86576 | -35.86794 | 37062 ft | 479 kts | 211° |
| 2026-05-05 07:09 | -13.92147 | -35.90547 | 37059 ft | 479 kts | 211° |
| 2026-05-05 07:10 | -13.97694 | -35.94286 | 37064 ft | 479 kts | 212° |
| 2026-05-05 07:10 | -14.03279 | -35.98054 | 37050 ft | 479 kts | 212° |
| 2026-05-05 07:11 | -14.08855 | -36.01817 | 37062 ft | 479 kts | 212° |
| 2026-05-05 07:11 | -14.14397 | -36.05559 | 37053 ft | 479 kts | 212° |
| 2026-05-05 07:12 | -14.19971 | -36.09324 | 37057 ft | 479 kts | 211° |
| 2026-05-05 07:12 | -14.25555 | -36.13097 | 37058 ft | 479 kts | 212° |
| 2026-05-05 07:13 | -14.31129 | -36.16868 | 37059 ft | 479 kts | 212° |
| 2026-05-05 07:13 | -14.36674 | -36.20623 | 37059 ft | 479 kts | 212° |
| 2026-05-05 07:14 | -14.42249 | -36.24400 | 37059 ft | 479 kts | 212° |
| 2026-05-05 07:14 | -14.47831 | -36.28182 | 37066 ft | 479 kts | 212° |
| 2026-05-05 07:15 | -14.53382 | -36.31945 | 37058 ft | 479 kts | 212° |
| 2026-05-05 07:15 | -14.58956 | -36.35728 | 37061 ft | 479 kts | 212° |
| 2026-05-05 07:16 | -14.64530 | -36.39512 | 37062 ft | 479 kts | 212° |
| 2026-05-05 07:16 | -14.70100 | -36.43297 | 37064 ft | 479 kts | 212° |
| 2026-05-05 07:17 | -14.75677 | -36.47086 | 37064 ft | 479 kts | 212° |
| 2026-05-05 07:17 | -14.81207 | -36.50848 | 37064 ft | 479 kts | 212° |
| 2026-05-05 07:18 | -14.86783 | -36.54643 | 37064 ft | 479 kts | 212° |
| 2026-05-05 07:18 | -14.92360 | -36.58442 | 37064 ft | 479 kts | 212° |
| 2026-05-05 07:19 | -14.97896 | -36.62214 | 37069 ft | 479 kts | 212° |
| 2026-05-05 07:19 | -15.03468 | -36.66014 | 37064 ft | 479 kts | 212° |
| 2026-05-05 07:20 | -15.09042 | -36.69817 | 37064 ft | 479 kts | 212° |
| 2026-05-05 07:20 | -15.14616 | -36.73623 | 37064 ft | 479 kts | 212° |
| 2026-05-05 07:21 | -15.20161 | -36.77411 | 37069 ft | 479 kts | 212° |
| 2026-05-05 07:21 | -15.25734 | -36.81221 | 37070 ft | 479 kts | 212° |
| 2026-05-05 07:22 | -15.31274 | -36.85011 | 37070 ft | 479 kts | 212° |
| 2026-05-05 07:22 | -15.36844 | -36.88824 | 37070 ft | 479 kts | 212° |
| 2026-05-05 07:23 | -15.42411 | -36.92638 | 37073 ft | 479 kts | 212° |
| 2026-05-05 07:23 | -15.47941 | -36.96428 | 37072 ft | 479 kts | 212° |
| 2026-05-05 07:24 | -15.53508 | -37.00248 | 37073 ft | 479 kts | 212° |
| 2026-05-05 07:24 | -15.59073 | -37.04067 | 37071 ft | 479 kts | 213° |
| 2026-05-05 07:25 | -15.64619 | -37.07876 | 37073 ft | 479 kts | 213° |
| 2026-05-05 07:25 | -15.70158 | -37.11682 | 37073 ft | 479 kts | 213° |
| 2026-05-05 07:26 | -15.75725 | -37.15510 | 37075 ft | 479 kts | 213° |
| 2026-05-05 07:26 | -15.81285 | -37.19337 | 37078 ft | 479 kts | 213° |
| 2026-05-05 07:27 | -15.86817 | -37.23147 | 37074 ft | 479 kts | 213° |
| 2026-05-05 07:27 | -15.92376 | -37.26977 | 37080 ft | 479 kts | 213° |
| 2026-05-05 07:28 | -15.97931 | -37.30808 | 37095 ft | 478 kts | 213° |
| 2026-05-05 07:28 | -16.03459 | -37.34622 | 37081 ft | 478 kts | 213° |
| 2026-05-05 07:29 | -16.09009 | -37.38454 | 37081 ft | 479 kts | 213° |
| 2026-05-05 07:29 | -16.14563 | -37.42287 | 37081 ft | 479 kts | 212° |
| 2026-05-05 07:30 | -16.20145 | -37.46097 | 37084 ft | 479 kts | 212° |
| 2026-05-05 07:30 | -16.28475 | -37.51775 | 37085 ft | 478 kts | 212° |
| 2026-05-05 07:31 | -16.34052 | -37.55586 | 37086 ft | 478 kts | 212° |
| 2026-05-05 07:31 | -16.39613 | -37.59390 | 37088 ft | 478 kts | 212° |
| 2026-05-05 07:32 | -16.45179 | -37.63201 | 37088 ft | 478 kts | 212° |
| 2026-05-05 07:32 | -16.50713 | -37.66992 | 37091 ft | 478 kts | 212° |
| 2026-05-05 07:33 | -16.56273 | -37.70803 | 37088 ft | 477 kts | 212° |
| 2026-05-05 07:33 | -16.61835 | -37.74619 | 37094 ft | 477 kts | 212° |
| 2026-05-05 07:34 | -16.67346 | -37.78402 | 37097 ft | 477 kts | 212° |
| 2026-05-05 07:34 | -16.72899 | -37.82219 | 37095 ft | 477 kts | 212° |
| 2026-05-05 07:35 | -16.78442 | -37.86032 | 37094 ft | 477 kts | 212° |
| 2026-05-05 07:35 | -16.83059 | -37.89208 | 37101 ft | 477 kts | 212° |
| 2026-05-05 07:36 | -16.89510 | -37.93648 | 37101 ft | 477 kts | 212° |
| 2026-05-05 07:36 | -16.94126 | -37.96828 | 37100 ft | 477 kts | 212° |
| 2026-05-05 07:37 | -16.99689 | -38.00663 | 37106 ft | 478 kts | 212° |
| 2026-05-05 07:37 | -17.05206 | -38.04469 | 37105 ft | 478 kts | 212° |
| 2026-05-05 07:38 | -17.10764 | -38.08305 | 37104 ft | 478 kts | 212° |
| 2026-05-05 07:38 | -17.16293 | -38.12126 | 37107 ft | 478 kts | 212° |
| 2026-05-05 07:39 | -17.21848 | -38.15966 | 37109 ft | 478 kts | 212° |
| 2026-05-05 07:39 | -17.27394 | -38.19803 | 37109 ft | 477 kts | 212° |
| 2026-05-05 07:40 | -17.32931 | -38.23635 | 37114 ft | 476 kts | 212° |
| 2026-05-05 07:40 | -17.38457 | -38.27465 | 37113 ft | 476 kts | 212° |
| 2026-05-05 07:41 | -17.43949 | -38.31274 | 37128 ft | 476 kts | 213° |
| 2026-05-05 07:41 | -17.49476 | -38.35110 | 37116 ft | 476 kts | 213° |
| 2026-05-05 07:42 | -17.55002 | -38.38949 | 37116 ft | 475 kts | 213° |
| 2026-05-05 07:42 | -17.60484 | -38.42759 | 37112 ft | 475 kts | 213° |
| 2026-05-05 07:43 | -17.66004 | -38.46597 | 37119 ft | 475 kts | 213° |
| 2026-05-05 07:43 | -17.71505 | -38.50426 | 37117 ft | 474 kts | 213° |
| 2026-05-05 07:44 | -17.76979 | -38.54239 | 37120 ft | 474 kts | 213° |
| 2026-05-05 07:44 | -17.82491 | -38.58081 | 37123 ft | 475 kts | 213° |
| 2026-05-05 07:45 | -17.88002 | -38.61925 | 37124 ft | 474 kts | 213° |
| 2026-05-05 07:45 | -17.93474 | -38.65744 | 37117 ft | 474 kts | 213° |
| 2026-05-05 07:46 | -17.98981 | -38.69591 | 37140 ft | 473 kts | 213° |
| 2026-05-05 07:46 | -18.04424 | -38.73397 | 37121 ft | 472 kts | 213° |
| 2026-05-05 07:47 | -18.09900 | -38.77229 | 37124 ft | 472 kts | 213° |
| 2026-05-05 07:47 | -18.15376 | -38.81063 | 37133 ft | 472 kts | 213° |
| 2026-05-05 07:48 | -18.20816 | -38.84875 | 37130 ft | 472 kts | 213° |
| 2026-05-05 07:48 | -18.26287 | -38.88712 | 37128 ft | 472 kts | 213° |
| 2026-05-05 07:49 | -18.31758 | -38.92551 | 37131 ft | 472 kts | 213° |
| 2026-05-05 07:49 | -18.37233 | -38.96394 | 37143 ft | 472 kts | 213° |
| 2026-05-05 07:50 | -18.42667 | -39.00213 | 37132 ft | 471 kts | 213° |
| 2026-05-05 07:50 | -18.48150 | -39.04027 | 37134 ft | 472 kts | 213° |
| 2026-05-05 07:51 | -18.53662 | -39.07812 | 37135 ft | 472 kts | 213° |
| 2026-05-05 07:51 | -18.59168 | -39.11596 | 37148 ft | 472 kts | 213° |
| 2026-05-05 07:52 | -18.64628 | -39.15361 | 37141 ft | 471 kts | 213° |
| 2026-05-05 07:52 | -18.70121 | -39.19157 | 37140 ft | 471 kts | 213° |
| 2026-05-05 07:53 | -18.75603 | -39.22950 | 37140 ft | 471 kts | 213° |
| 2026-05-05 07:53 | -18.81084 | -39.26744 | 37140 ft | 471 kts | 213° |
| 2026-05-05 07:54 | -18.86525 | -39.30509 | 37144 ft | 470 kts | 213° |
| 2026-05-05 07:54 | -18.92002 | -39.34305 | 37150 ft | 469 kts | 213° |
| 2026-05-05 07:55 | -18.97430 | -39.38070 | 37148 ft | 469 kts | 213° |
| 2026-05-05 07:55 | -19.02891 | -39.41860 | 37148 ft | 468 kts | 213° |
| 2026-05-05 07:56 | -19.08336 | -39.45642 | 37147 ft | 468 kts | 213° |
| 2026-05-05 07:56 | -19.13783 | -39.49428 | 37152 ft | 468 kts | 213° |
| 2026-05-05 07:57 | -19.19199 | -39.53195 | 37159 ft | 468 kts | 213° |
| 2026-05-05 07:57 | -19.24643 | -39.56984 | 37155 ft | 468 kts | 213° |
| 2026-05-05 07:58 | -19.30051 | -39.60752 | 37164 ft | 467 kts | 213° |
| 2026-05-05 07:58 | -19.35495 | -39.64549 | 37157 ft | 466 kts | 213° |
| 2026-05-05 07:59 | -19.40913 | -39.68333 | 37157 ft | 466 kts | 213° |
| 2026-05-05 07:59 | -19.46310 | -39.72104 | 37160 ft | 466 kts | 213° |
| 2026-05-05 08:00 | -19.51738 | -39.75898 | 37166 ft | 466 kts | 213° |
| 2026-05-05 08:00 | -19.57142 | -39.79679 | 37168 ft | 465 kts | 213° |
| 2026-05-05 08:01 | -19.62507 | -39.83436 | 37165 ft | 464 kts | 213° |
| 2026-05-05 08:01 | -19.67899 | -39.87215 | 37167 ft | 464 kts | 213° |
| 2026-05-05 08:02 | -19.73295 | -39.90982 | 37177 ft | 464 kts | 213° |
| 2026-05-05 08:02 | -19.78673 | -39.94702 | 37171 ft | 463 kts | 213° |
| 2026-05-05 08:03 | -19.84079 | -39.98441 | 37172 ft | 463 kts | 213° |
| 2026-05-05 08:03 | -19.89482 | -40.02187 | 37173 ft | 463 kts | 213° |
| 2026-05-05 08:04 | -19.94880 | -40.05933 | 37179 ft | 463 kts | 213° |
| 2026-05-05 08:04 | -20.00252 | -40.09665 | 37181 ft | 463 kts | 213° |
| 2026-05-05 08:05 | -20.05645 | -40.13415 | 37185 ft | 463 kts | 213° |
| 2026-05-05 08:05 | -20.11043 | -40.17169 | 37182 ft | 463 kts | 213° |
| 2026-05-05 08:06 | -20.16399 | -40.20898 | 37180 ft | 463 kts | 213° |
| 2026-05-05 08:06 | -20.21799 | -40.24662 | 37180 ft | 462 kts | 213° |
| 2026-05-05 08:07 | -20.26885 | -40.28727 | 37186 ft | 455 kts | 223° |
| 2026-05-05 08:07 | -20.31154 | -40.33647 | 37199 ft | 454 kts | 227° |
| 2026-05-05 08:08 | -20.35314 | -40.38728 | 37205 ft | 454 kts | 227° |
| 2026-05-05 08:08 | -20.39417 | -40.43800 | 37203 ft | 454 kts | 227° |
| 2026-05-05 08:09 | -20.43550 | -40.48902 | 37210 ft | 454 kts | 227° |
| 2026-05-05 08:09 | -20.47694 | -40.54009 | 37204 ft | 454 kts | 227° |
| 2026-05-05 08:10 | -20.51836 | -40.59115 | 37215 ft | 455 kts | 227° |
| 2026-05-05 08:10 | -20.55952 | -40.64192 | 37217 ft | 454 kts | 227° |
| 2026-05-05 08:11 | -20.60083 | -40.69294 | 37221 ft | 454 kts | 227° |
| 2026-05-05 08:11 | -20.64218 | -40.74406 | 37224 ft | 453 kts | 227° |
| 2026-05-05 08:12 | -20.68308 | -40.79465 | 37215 ft | 452 kts | 227° |
| 2026-05-05 08:12 | -20.72433 | -40.84546 | 37239 ft | 453 kts | 226° |
| 2026-05-05 08:13 | -20.76644 | -40.89556 | 37208 ft | 453 kts | 226° |
| 2026-05-05 08:13 | -20.80867 | -40.94557 | 37222 ft | 452 kts | 226° |
| 2026-05-05 08:14 | -20.85065 | -40.99562 | 37205 ft | 452 kts | 226° |
| 2026-05-05 08:14 | -20.89255 | -41.04571 | 37205 ft | 451 kts | 226° |
| 2026-05-05 08:15 | -20.93418 | -41.09564 | 37207 ft | 452 kts | 226° |
| 2026-05-05 08:15 | -20.97608 | -41.14598 | 37206 ft | 452 kts | 226° |
| 2026-05-05 08:16 | -21.01799 | -41.19634 | 37202 ft | 451 kts | 226° |
| 2026-05-05 08:16 | -21.05953 | -41.24629 | 37205 ft | 451 kts | 226° |
| 2026-05-05 08:17 | -21.10135 | -41.29659 | 37223 ft | 452 kts | 226° |
| 2026-05-05 08:17 | -21.14323 | -41.34702 | 37201 ft | 452 kts | 226° |
| 2026-05-05 08:18 | -21.18481 | -41.39713 | 37207 ft | 453 kts | 226° |
| 2026-05-05 08:18 | -21.22664 | -41.44759 | 37210 ft | 452 kts | 226° |
| 2026-05-05 08:19 | -21.26847 | -41.49808 | 37208 ft | 452 kts | 226° |
| 2026-05-05 08:19 | -21.31026 | -41.54860 | 37208 ft | 453 kts | 226° |
| 2026-05-05 08:20 | -21.35180 | -41.59894 | 37203 ft | 453 kts | 226° |
| 2026-05-05 08:20 | -21.39364 | -41.64961 | 37206 ft | 453 kts | 226° |
| 2026-05-05 08:21 | -21.43540 | -41.70026 | 37208 ft | 452 kts | 226° |
| 2026-05-05 08:21 | -21.47688 | -41.75063 | 37211 ft | 453 kts | 226° |
| 2026-05-05 08:22 | -21.51710 | -41.80279 | 37211 ft | 451 kts | 234° |
| 2026-05-05 08:22 | -21.55565 | -41.85550 | 37211 ft | 450 kts | 232° |
| 2026-05-05 08:23 | -21.59603 | -41.90701 | 37214 ft | 450 kts | 231° |
| 2026-05-05 08:23 | -21.63738 | -41.95767 | 36908 ft | 450 kts | 230° |
| 2026-05-05 08:24 | -21.65815 | -41.98290 | 36211 ft | 450 kts | 230° |
| 2026-05-05 08:24 | -21.67889 | -42.00808 | 35662 ft | 448 kts | 230° |
| 2026-05-05 08:24 | -21.69944 | -42.03308 | 35084 ft | 446 kts | 230° |
| 2026-05-05 08:24 | -21.71998 | -42.05812 | 34448 ft | 446 kts | 230° |
| 2026-05-05 08:25 | -21.73361 | -42.07475 | 33989 ft | 447 kts | 230° |
| 2026-05-05 08:25 | -21.75418 | -42.09988 | 33241 ft | 447 kts | 230° |
| 2026-05-05 08:25 | -21.78144 | -42.13322 | 32271 ft | 448 kts | 230° |
| 2026-05-05 08:25 | -21.80212 | -42.15852 | 31526 ft | 449 kts | 230° |
| 2026-05-05 08:26 | -21.81581 | -42.17528 | 31030 ft | 449 kts | 230° |
| 2026-05-05 08:26 | -21.83593 | -42.20126 | 30261 ft | 450 kts | 236° |
| 2026-05-05 08:26 | -21.85265 | -42.22960 | 29420 ft | 449 kts | 240° |
| 2026-05-05 08:26 | -21.86862 | -42.25880 | 28538 ft | 451 kts | 240° |
| 2026-05-05 08:27 | -21.88422 | -42.28770 | 27803 ft | 451 kts | 240° |
| 2026-05-05 08:27 | -21.89990 | -42.31688 | 27126 ft | 449 kts | 240° |
| 2026-05-05 08:27 | -21.91553 | -42.34603 | 26494 ft | 446 kts | 240° |
| 2026-05-05 08:27 | -21.93102 | -42.37495 | 25883 ft | 444 kts | 240° |
| 2026-05-05 08:28 | -21.94640 | -42.40369 | 25264 ft | 442 kts | 240° |
| 2026-05-05 08:28 | -21.96173 | -42.43237 | 24692 ft | 439 kts | 240° |
| 2026-05-05 08:28 | -21.97672 | -42.46042 | 24106 ft | 437 kts | 240° |
| 2026-05-05 08:28 | -21.99191 | -42.48888 | 23362 ft | 437 kts | 240° |
| 2026-05-05 08:29 | -22.00703 | -42.51723 | 22705 ft | 434 kts | 240° |
| 2026-05-05 08:29 | -22.02202 | -42.54534 | 22110 ft | 430 kts | 240° |
| 2026-05-05 08:29 | -22.03691 | -42.57328 | 21480 ft | 427 kts | 240° |
| 2026-05-05 08:30 | -22.06619 | -42.62825 | 20303 ft | 421 kts | 240° |
| 2026-05-05 08:30 | -22.08071 | -42.65554 | 19753 ft | 417 kts | 240° |
| 2026-05-05 08:30 | -22.09515 | -42.68270 | 19153 ft | 415 kts | 240° |
| 2026-05-05 08:30 | -22.10928 | -42.70928 | 18584 ft | 412 kts | 240° |
| 2026-05-05 08:31 | -22.12346 | -42.73598 | 17934 ft | 409 kts | 240° |
| 2026-05-05 08:31 | -22.13761 | -42.76263 | 17279 ft | 408 kts | 240° |
| 2026-05-05 08:31 | -22.15165 | -42.78906 | 16675 ft | 404 kts | 240° |
| 2026-05-05 08:31 | -22.16558 | -42.81531 | 16060 ft | 401 kts | 240° |
| 2026-05-05 08:32 | -22.17940 | -42.84139 | 15462 ft | 399 kts | 240° |
| 2026-05-05 08:32 | -22.19311 | -42.86727 | 14896 ft | 396 kts | 240° |
| 2026-05-05 08:32 | -22.20673 | -42.89299 | 14317 ft | 393 kts | 239° |
| 2026-05-05 08:32 | -22.22028 | -42.91858 | 13735 ft | 390 kts | 239° |
| 2026-05-05 08:33 | -22.23375 | -42.94404 | 13122 ft | 388 kts | 240° |
| 2026-05-05 08:33 | -22.24691 | -42.96895 | 12489 ft | 386 kts | 239° |
| 2026-05-05 08:33 | -22.26021 | -42.99409 | 11896 ft | 383 kts | 239° |
| 2026-05-05 08:33 | -22.27331 | -43.01887 | 11324 ft | 379 kts | 239° |
| 2026-05-05 08:34 | -22.28623 | -43.04329 | 11032 ft | 367 kts | 240° |
| 2026-05-05 08:34 | -22.29871 | -43.06694 | 10783 ft | 355 kts | 239° |
| 2026-05-05 08:34 | -22.31076 | -43.08978 | 10579 ft | 344 kts | 239° |
| 2026-05-05 08:34 | -22.32239 | -43.11183 | 10367 ft | 332 kts | 239° |
| 2026-05-05 08:35 | -22.33365 | -43.13321 | 10158 ft | 322 kts | 239° |
| 2026-05-05 08:35 | -22.34441 | -43.15364 | 9947 ft | 311 kts | 239° |
| 2026-05-05 08:35 | -22.35493 | -43.17359 | 9734 ft | 301 kts | 239° |
| 2026-05-05 08:35 | -22.36332 | -43.19385 | 9494 ft | 292 kts | 256° |
| 2026-05-05 08:36 | -22.36666 | -43.21510 | 9294 ft | 282 kts | 260° |
| 2026-05-05 08:36 | -22.36966 | -43.23575 | 9108 ft | 272 kts | 260° |
| 2026-05-05 08:36 | -22.37253 | -43.25562 | 8980 ft | 261 kts | 260° |
| 2026-05-05 08:36 | -22.37524 | -43.27447 | 8801 ft | 252 kts | 260° |
| 2026-05-05 08:37 | -22.37787 | -43.29289 | 8580 ft | 245 kts | 260° |
| 2026-05-05 08:37 | -22.38099 | -43.31091 | 8306 ft | 241 kts | 254° |
| 2026-05-05 08:37 | -22.38548 | -43.32825 | 8131 ft | 238 kts | 252° |
| 2026-05-05 08:37 | -22.39021 | -43.34527 | 7848 ft | 236 kts | 252° |
| 2026-05-05 08:38 | -22.39502 | -43.36222 | 7660 ft | 235 kts | 251° |
| 2026-05-05 08:38 | -22.40132 | -43.37845 | 7679 ft | 235 kts | 243° |
| 2026-05-05 08:38 | -22.40848 | -43.39405 | 7772 ft | 234 kts | 242° |
| 2026-05-05 08:38 | -22.41596 | -43.40973 | 8103 ft | 235 kts | 239° |
| 2026-05-05 08:39 | -22.42577 | -43.42388 | 8262 ft | 234 kts | 227° |
| 2026-05-05 08:39 | -22.43678 | -43.43687 | 8307 ft | 234 kts | 226° |
| 2026-05-05 08:39 | -22.44814 | -43.44946 | 8302 ft | 233 kts | 221° |
| 2026-05-05 08:39 | -22.46059 | -43.46083 | 8306 ft | 234 kts | 218° |
| 2026-05-05 08:40 | -22.47319 | -43.47175 | 8301 ft | 239 kts | 218° |
| 2026-05-05 08:40 | -22.48639 | -43.48311 | 8305 ft | 243 kts | 218° |
| 2026-05-05 08:40 | -22.49962 | -43.49452 | 8289 ft | 244 kts | 218° |
| 2026-05-05 08:40 | -22.51289 | -43.50596 | 8236 ft | 243 kts | 218° |
| 2026-05-05 08:41 | -22.52560 | -43.51781 | 8287 ft | 241 kts | 223° |
| 2026-05-05 08:41 | -22.53728 | -43.53084 | 8240 ft | 242 kts | 224° |
| 2026-05-05 08:41 | -22.55038 | -43.54216 | 7863 ft | 240 kts | 210° |
| 2026-05-05 08:41 | -22.56581 | -43.54890 | 7494 ft | 240 kts | 192° |
| 2026-05-05 08:42 | -22.58245 | -43.54959 | 7134 ft | 242 kts | 172° |
| 2026-05-05 08:42 | -22.59848 | -43.54405 | 6824 ft | 242 kts | 157° |
| 2026-05-05 08:42 | -22.61352 | -43.53615 | 6521 ft | 242 kts | 155° |
| 2026-05-05 08:42 | -22.62854 | -43.52796 | 6180 ft | 241 kts | 155° |
| 2026-05-05 08:43 | -22.64260 | -43.51793 | 5793 ft | 244 kts | 138° |
| 2026-05-05 08:43 | -22.65366 | -43.50395 | 5430 ft | 244 kts | 127° |
| 2026-05-05 08:43 | -22.66352 | -43.48902 | 5086 ft | 244 kts | 126° |
| 2026-05-05 08:43 | -22.67330 | -43.47399 | 4723 ft | 244 kts | 125° |
| 2026-05-05 08:44 | -22.68298 | -43.45921 | 4372 ft | 244 kts | 125° |
| 2026-05-05 08:44 | -22.69285 | -43.44422 | 3998 ft | 244 kts | 125° |
| 2026-05-05 08:44 | -22.70273 | -43.42925 | 3608 ft | 245 kts | 124° |
| 2026-05-05 08:44 | -22.71265 | -43.41425 | 3346 ft | 243 kts | 124° |
| 2026-05-05 08:45 | -22.72275 | -43.39970 | 3051 ft | 241 kts | 126° |
| 2026-05-05 08:45 | -22.73255 | -43.38511 | 2695 ft | 235 kts | 123° |
| 2026-05-05 08:45 | -22.74173 | -43.37101 | 2382 ft | 220 kts | 124° |
| 2026-05-05 08:45 | -22.75035 | -43.35798 | 2118 ft | 206 kts | 124° |
| 2026-05-05 08:46 | -22.75831 | -43.34594 | 1854 ft | 194 kts | 124° |
| 2026-05-05 08:46 | -22.76589 | -43.33442 | 1605 ft | 182 kts | 124° |
| 2026-05-05 08:46 | -22.77302 | -43.32360 | 1362 ft | 171 kts | 124° |
| 2026-05-05 08:46 | -22.77967 | -43.31328 | 1075 ft | 165 kts | 123° |
| 2026-05-05 08:47 | -22.78597 | -43.30320 | 815 ft | 158 kts | 123° |
| 2026-05-05 08:47 | -22.79218 | -43.29371 | 632 ft | 149 kts | 126° |
| 2026-05-05 08:47 | -22.79842 | -43.28474 | 419 ft | 149 kts | 127° |
| 2026-05-05 08:47 | -22.80444 | -43.27580 | 272 ft | 148 kts | 124° |
| 2026-05-05 08:48 | -22.81036 | -43.26652 | 127 ft | 150 kts | 124° |
| 2026-05-05 08:48 | -22.81648 | -43.25737 | 32 ft | 146 kts | 126° |
| 2026-05-05 08:48 | -22.82137 | -43.25006 | 29 ft | 83 kts | 127° |
| 2026-05-05 08:48 | -22.82315 | -43.24727 | 29 ft | 26 kts | 114° |
| 2026-05-05 08:49 | -22.82361 | -43.24545 | 25 ft | 25 kts | 96° |
| 2026-05-05 08:49 | -22.82350 | -43.24461 | 30 ft | 2 kts | 7° |
| 2026-05-05 08:49 | -22.82333 | -43.24469 | 27 ft | 3 kts | 334° |
| 2026-05-05 08:49 | -22.82303 | -43.24499 | 27 ft | 9 kts | 310° |
| 2026-05-05 08:50 | -22.82256 | -43.24567 | 30 ft | 13 kts | 305° |
| 2026-05-05 08:50 | -22.82201 | -43.24649 | 29 ft | 14 kts | 306° |
| 2026-05-05 08:50 | -22.82133 | -43.24727 | 31 ft | 13 kts | 342° |
| 2026-05-05 08:50 | -22.82055 | -43.24689 | 27 ft | 13 kts | 33° |
| 2026-05-05 08:51 | -22.81975 | -43.24652 | 27 ft | 13 kts | 8° |
| 2026-05-05 08:51 | -22.81889 | -43.24613 | 27 ft | 14 kts | 34° |
| 2026-05-05 08:51 | -22.81804 | -43.24560 | 28 ft | 14 kts | 7° |
| 2026-05-05 08:51 | -22.81716 | -43.24606 | 28 ft | 15 kts | 317° |
| 2026-05-05 08:52 | -22.81652 | -43.24698 | 28 ft | 16 kts | 304° |
| 2026-05-05 08:52 | -22.81588 | -43.24798 | 28 ft | 15 kts | 305° |
| 2026-05-05 08:52 | -22.81521 | -43.24872 | 28 ft | 10 kts | 325° |
| 2026-05-05 08:52 | -22.81471 | -43.24873 | 28 ft | 5 kts | 45° |
| 2026-05-05 08:53 | -22.81459 | -43.24836 | 28 ft | 5 kts | 71° |
| 2026-05-05 08:53 | -22.81454 | -43.24818 | 28 ft | 0 kts | 71° |
| 2026-05-05 08:54 | -22.81457 | -43.24829 | 28 ft | 2 kts | 71° |
| 2026-05-05 08:54 | -22.81457 | -43.24831 | 28 ft | 0 kts | 71° |